createdAt,value
2023-02-12T00:00:03.831Z,98935.63
2023-02-12T00:02:41.807Z,98936.50
2023-02-12T00:05:08.592Z,98922.28
2023-02-12T00:07:35.268Z,98934.78
2023-02-12T00:10:02.093Z,98929.47
2023-02-12T00:12:29.006Z,98927.00
2023-02-12T00:14:55.697Z,98934.38
2023-02-12T00:17:22.471Z,98923.28
2023-02-12T00:19:49.176Z,98926.59
2023-02-12T00:22:16.023Z,98923.53
2023-02-12T00:24:45.879Z,98928.78
2023-02-12T00:27:12.858Z,98924.41
2023-02-12T00:29:39.970Z,98924.06
2023-02-12T00:32:07.626Z,98936.50
2023-02-12T00:34:34.437Z,98926.53
2023-02-12T00:37:01.163Z,98940.22
2023-02-12T00:39:27.821Z,98942.81
2023-02-12T00:41:54.552Z,98927.06
2023-02-12T00:44:21.267Z,98925.31
2023-02-12T00:46:48.104Z,98927.00
2023-02-12T00:49:16.621Z,98922.06
2023-02-12T00:51:43.341Z,98927.31
2023-02-12T00:54:10.591Z,98919.41
2023-02-12T00:56:37.298Z,98918.78
2023-02-12T00:59:04.177Z,98919.69
2023-02-12T01:01:30.937Z,98911.13
2023-02-12T01:03:57.893Z,98913.63
2023-02-12T01:06:26.343Z,98911.97
2023-02-12T01:08:53.621Z,98909.16
2023-02-12T01:11:21.175Z,98913.63
2023-02-12T01:13:48.635Z,98917.00
2023-02-12T01:16:23.659Z,98919.47
2023-02-12T01:18:54.452Z,98912.41
2023-02-12T01:21:25.778Z,98910.28
2023-02-12T01:23:52.589Z,98910.19
2023-02-12T01:26:20.844Z,98897.69
2023-02-12T01:28:59.696Z,98901.97
2023-02-12T01:31:30.013Z,98904.78
2023-02-12T01:33:58.956Z,98906.91
2023-02-12T01:36:27.475Z,98903.44
2023-02-12T01:38:54.319Z,98894.44
2023-02-12T01:41:23.989Z,98898.38
2023-02-12T01:44:11.463Z,98903.53
2023-02-12T01:46:39.205Z,98903.84
2023-02-12T01:49:11.341Z,98901.72
2023-02-12T01:51:38.614Z,98901.28
2023-02-12T01:54:10.588Z,98897.13
2023-02-12T01:56:38.413Z,98895.56
2023-02-12T01:59:05.721Z,98892.22
2023-02-12T02:01:34.178Z,98888.06
2023-02-12T02:04:13.542Z,98887.06
2023-02-12T02:06:58.996Z,98888.16
2023-02-12T02:09:27.237Z,98880.56
2023-02-12T02:12:13.761Z,98877.72
2023-02-12T02:14:42.040Z,98871.34
2023-02-12T02:17:28.632Z,98871.66
2023-02-12T02:20:04.241Z,98870.56
2023-02-12T02:22:49.444Z,98890.72
2023-02-12T02:25:19.052Z,98884.34
2023-02-12T02:28:24.436Z,98871.16
2023-02-12T02:30:57.856Z,98856.16
2023-02-12T02:33:39.694Z,98844.75
2023-02-12T02:36:31.855Z,98850.28
2023-02-12T02:39:07.459Z,98851.06
2023-02-12T02:41:49.519Z,98846.34
2023-02-12T02:44:42.364Z,98845.34
2023-02-12T02:47:14.436Z,98848.94
2023-02-12T02:49:50.254Z,98848.16
2023-02-12T02:52:24.773Z,98846.47
2023-02-12T02:54:58.536Z,98841.28
2023-02-12T02:57:28.246Z,98846.47
2023-02-12T03:00:13.492Z,98843.09
2023-02-12T03:02:45.276Z,98841.28
2023-02-12T03:05:34.465Z,98844.34
2023-02-12T03:08:12.168Z,98847.50
2023-02-12T03:10:47.827Z,98855.34
2023-02-12T03:13:24.754Z,98860.84
2023-02-12T03:16:05.213Z,98854.78
2023-02-12T03:18:49.389Z,98844.69
2023-02-12T03:21:18.664Z,98847.25
2023-02-12T03:23:58.936Z,98841.88
2023-02-12T03:26:37.865Z,98846.09
2023-02-12T03:29:04.699Z,98835.81
2023-02-12T03:31:43.040Z,98838.81
2023-02-12T03:34:45.697Z,98840.75
2023-02-12T03:37:21.833Z,98834.66
2023-02-12T03:40:01.139Z,98848.59
2023-02-12T03:42:40.098Z,98836.69
2023-02-12T03:45:29.844Z,98849.84
2023-02-12T03:48:20.446Z,98860.38
2023-02-12T03:51:25.468Z,98867.13
2023-02-12T03:53:52.846Z,98867.66
2023-02-12T03:56:27.925Z,98855.56
2023-02-12T03:58:54.745Z,98863.06
2023-02-12T04:01:21.624Z,98857.78
2023-02-12T04:03:48.406Z,98861.19
2023-02-12T04:06:25.788Z,98863.91
2023-02-12T04:08:54.022Z,98861.66
2023-02-12T04:11:35.346Z,98862.63
2023-02-12T04:14:21.064Z,98864.75
2023-02-12T04:17:16.940Z,98875.56
2023-02-12T04:20:18.234Z,98875.88
2023-02-12T04:23:16.925Z,98878.34
2023-02-12T04:25:51.573Z,98890.22
2023-02-12T04:28:36.249Z,98885.94
2023-02-12T04:31:27.939Z,98886.72
2023-02-12T04:34:05.313Z,98901.59
2023-02-12T04:36:42.441Z,98895.44
2023-02-12T04:39:15.317Z,98902.72
2023-02-12T04:41:42.137Z,98911.22
2023-02-12T04:44:17.269Z,98916.84
2023-02-12T04:46:44.013Z,98915.84
2023-02-12T04:49:16.217Z,98910.69
2023-02-12T04:51:43.557Z,98917.84
2023-02-12T04:54:10.411Z,98912.00
2023-02-12T04:56:37.288Z,98905.06
2023-02-12T04:59:04.781Z,98920.75
2023-02-12T05:01:33.182Z,98926.25
2023-02-12T05:03:59.968Z,98928.38
2023-02-12T05:06:26.792Z,98930.19
2023-02-12T05:08:54.250Z,98931.31
2023-02-12T05:11:20.962Z,98935.47
2023-02-12T05:13:52.092Z,98946.56
2023-02-12T05:16:20.285Z,98944.53
2023-02-12T05:18:47.272Z,98928.03
2023-02-12T05:21:14.571Z,98936.03
2023-02-12T05:23:41.902Z,98947.91
2023-02-12T05:26:17.951Z,98944.22
2023-02-12T05:28:46.455Z,98952.63
2023-02-12T05:31:18.205Z,98971.47
2023-02-12T05:33:48.579Z,98987.72
2023-02-12T05:36:18.363Z,98997.81
2023-02-12T05:38:45.220Z,99001.97
2023-02-12T05:41:18.437Z,99004.44
2023-02-12T05:43:47.792Z,99009.25
2023-02-12T05:46:16.854Z,98998.09
2023-02-12T05:48:43.779Z,98993.56
2023-02-12T05:51:13.412Z,99013.41
2023-02-12T05:53:41.245Z,99013.28
2023-02-12T05:56:07.902Z,99020.47
2023-02-12T05:58:34.655Z,99023.75
2023-02-12T06:01:01.439Z,99027.63
2023-02-12T06:03:28.179Z,99019.22
2023-02-12T06:05:55.074Z,99007.56
2023-02-12T06:08:21.900Z,99019.03
2023-02-12T06:10:48.721Z,99007.69
2023-02-12T06:13:15.519Z,98990.19
2023-02-12T06:15:42.213Z,98984.03
2023-02-12T06:18:08.915Z,98985.25
2023-02-12T06:20:38.285Z,98980.78
2023-02-12T06:23:04.961Z,98970.09
2023-02-12T06:25:31.838Z,98981.22
2023-02-12T06:27:58.505Z,98970.09
2023-02-12T06:30:25.204Z,98981.44
2023-02-12T06:32:51.956Z,98964.94
2023-02-12T06:35:18.613Z,98965.19
2023-02-12T06:37:45.441Z,98966.75
2023-02-12T06:40:12.567Z,98970.56
2023-02-12T06:42:39.300Z,98977.06
2023-02-12T06:45:06.177Z,98976.84
2023-02-12T06:47:32.847Z,98971.34
2023-02-12T06:49:59.469Z,98970.56
2023-02-12T06:52:26.191Z,98979.06
2023-02-12T06:54:52.894Z,98984.69
2023-02-12T06:57:19.588Z,98974.38
2023-02-12T06:59:46.340Z,98979.75
2023-02-12T07:02:13.026Z,98983.00
2023-02-12T07:04:39.771Z,98979.91
2023-02-12T07:07:06.970Z,98981.19
2023-02-12T07:09:33.837Z,98982.78
2023-02-12T07:12:01.198Z,98994.09
2023-02-12T07:14:28.568Z,98986.16
2023-02-12T07:16:57.274Z,98988.94
2023-02-12T07:19:24.703Z,98994.91
2023-02-12T07:21:51.726Z,98996.47
2023-02-12T07:24:18.574Z,98987.72
2023-02-12T07:26:45.412Z,98991.88
2023-02-12T07:29:13.195Z,98999.38
2023-02-12T07:31:40.515Z,99011.81
2023-02-12T07:34:07.877Z,99011.94
2023-02-12T07:36:35.334Z,99027.50
2023-02-12T07:39:02.506Z,99015.81
2023-02-12T07:41:31.882Z,99004.28
2023-02-12T07:44:04.637Z,99013.34
2023-02-12T07:46:33.892Z,99008.41
2023-02-12T07:49:04.542Z,98999.41
2023-02-12T07:51:35.872Z,99004.69
2023-02-12T07:54:03.823Z,99002.66
2023-02-12T07:56:35.187Z,99005.47
2023-02-12T07:59:05.532Z,99003.84
2023-02-12T08:01:37.617Z,98993.38
2023-02-12T08:04:16.104Z,98996.53
2023-02-12T08:06:45.282Z,98990.59
2023-02-12T08:09:15.329Z,98990.34
2023-02-12T08:11:43.733Z,98996.63
2023-02-12T08:14:12.925Z,98997.88
2023-02-12T08:16:41.697Z,98997.69
2023-02-12T08:19:18.734Z,99000.84
2023-02-12T08:21:50.255Z,99009.13
2023-02-12T08:24:17.097Z,99019.31
2023-02-12T08:26:44.553Z,99012.28
2023-02-12T08:29:14.694Z,98997.50
2023-02-12T08:31:43.969Z,99004.34
2023-02-12T08:34:20.061Z,98993.53
2023-02-12T08:36:48.843Z,99000.91
2023-02-12T08:39:16.745Z,98997.72
2023-02-12T08:41:44.071Z,98995.31
2023-02-12T08:44:11.706Z,98996.63
2023-02-12T08:46:41.190Z,99016.72
2023-02-12T08:49:12.718Z,98998.03
2023-02-12T08:51:42.193Z,98995.75
2023-02-12T08:54:13.169Z,99001.13
2023-02-12T08:56:40.674Z,98998.44
2023-02-12T08:59:08.972Z,98998.69
2023-02-12T09:01:43.596Z,98987.59
2023-02-12T09:04:23.037Z,98990.69
2023-02-12T09:06:50.721Z,98990.78
2023-02-12T09:09:18.004Z,98994.53
2023-02-12T09:11:44.969Z,98987.81
2023-02-12T09:14:15.115Z,98987.41
2023-02-12T09:16:41.947Z,98987.66
2023-02-12T09:19:10.808Z,98999.31
2023-02-12T09:21:37.582Z,98990.34
2023-02-12T09:24:04.384Z,98991.16
2023-02-12T09:26:31.366Z,98986.22
2023-02-12T09:28:58.429Z,98989.00
2023-02-12T09:31:28.094Z,98993.38
2023-02-12T09:33:58.525Z,98983.13
2023-02-12T09:36:26.247Z,98996.19
2023-02-12T09:38:54.332Z,99002.59
2023-02-12T09:41:43.350Z,98996.16
2023-02-12T09:44:55.235Z,99005.84
2023-02-12T09:47:48.197Z,99000.06
2023-02-12T09:50:29.863Z,98995.56
2023-02-12T09:52:59.214Z,99003.88
2023-02-12T09:55:33.038Z,99011.75
2023-02-12T09:58:05.285Z,99010.44
2023-02-12T10:00:32.320Z,99014.72
2023-02-12T10:03:05.836Z,99021.75
2023-02-12T10:05:40.518Z,99019.78
2023-02-12T10:08:34.741Z,99025.94
2023-02-12T10:11:19.638Z,99035.25
2023-02-12T10:14:05.639Z,99042.59
2023-02-12T10:16:59.975Z,99028.03
2023-02-12T10:20:16.204Z,99047.28
2023-02-12T10:23:00.241Z,99056.03
2023-02-12T10:28:43.056Z,99081.47
2023-02-12T10:31:17.060Z,99071.56
2023-02-12T10:33:51.060Z,99096.97
2023-02-12T10:36:30.120Z,99102.97
2023-02-12T10:39:02.716Z,99109.16
2023-02-12T10:41:31.586Z,99118.63
2023-02-12T10:43:58.716Z,99114.69
2023-02-12T10:46:25.628Z,99124.00
2023-02-12T10:48:54.382Z,99129.97
2023-02-12T10:52:16.374Z,99130.94
2023-02-12T10:54:49.234Z,99135.47
2023-02-12T10:57:25.534Z,99136.41
2023-02-12T10:59:55.148Z,99139.28
2023-02-12T11:02:23.625Z,99125.88
2023-02-12T11:04:51.730Z,99131.31
2023-02-12T11:07:19.071Z,99121.22
2023-02-12T11:09:48.741Z,99121.69
2023-02-12T11:12:51.294Z,99126.72
2023-02-12T11:15:22.297Z,99110.25
2023-02-12T11:18:02.765Z,99117.78
2023-02-12T11:21:06.067Z,99155.31
2023-02-12T11:23:37.150Z,99169.22
2023-02-12T11:26:23.722Z,99154.81
2023-02-12T11:29:00.862Z,99164.84
2023-02-12T11:31:32.903Z,99164.00
2023-02-12T11:34:08.951Z,99166.88
2023-02-12T11:36:40.669Z,99166.09
2023-02-12T11:39:19.555Z,99188.53
2023-02-12T11:41:51.747Z,99213.22
2023-02-12T11:44:28.769Z,99211.94
2023-02-12T11:47:02.248Z,99247.75
2023-02-12T11:49:33.195Z,99254.53
2023-02-12T11:52:02.354Z,99261.69
2023-02-12T11:54:34.092Z,99264.34
2023-02-12T11:57:00.745Z,99258.19
2023-02-12T11:59:34.235Z,99264.56
2023-02-12T12:02:12.594Z,99253.00
2023-02-12T12:04:41.703Z,99275.72
2023-02-12T12:07:20.112Z,99280.59
2023-02-12T12:09:57.759Z,99268.22
2023-02-12T12:12:37.319Z,99260.94
2023-02-12T12:15:36.293Z,99268.06
2023-02-12T12:18:33.219Z,99283.78
2023-02-12T12:21:12.547Z,99283.69
2023-02-12T12:23:57.073Z,99308.28
2023-02-12T12:26:27.761Z,99298.50
2023-02-12T12:29:03.274Z,99286.72
2023-02-12T12:31:42.272Z,99281.19
2023-02-12T12:34:13.440Z,99281.19
2023-02-12T12:36:51.567Z,99288.53
2023-02-12T12:39:56.833Z,99290.56
2023-02-12T12:42:45.251Z,99258.13
2023-02-12T12:45:23.812Z,99275.66
2023-02-12T12:48:28.297Z,99279.78
2023-02-12T12:51:04.957Z,99279.41
2023-02-12T12:53:49.304Z,99273.00
2023-02-12T12:56:34.428Z,99260.56
2023-02-12T12:59:25.836Z,99240.28
2023-02-12T13:02:24.731Z,99263.56
2023-02-12T13:05:25.620Z,99306.59
2023-02-12T13:08:32.421Z,99288.09
2023-02-12T13:11:17.986Z,99288.94
2023-02-12T13:13:53.802Z,99279.72
2023-02-12T13:16:35.690Z,99281.94
2023-02-12T13:19:16.183Z,99317.28
2023-02-12T13:22:31.670Z,99309.25
2023-02-12T13:25:03.572Z,99325.31
2023-02-12T13:27:40.650Z,99331.38
2023-02-12T13:30:19.447Z,99349.91
2023-02-12T13:33:03.482Z,99345.25
2023-02-12T13:35:33.130Z,99317.97
2023-02-12T13:38:01.703Z,99354.28
2023-02-12T13:40:30.661Z,99323.50
2023-02-12T13:43:36.653Z,99343.44
2023-02-12T13:46:18.794Z,99339.28
2023-02-12T13:48:57.810Z,99347.31
2023-02-12T13:51:41.333Z,99349.50
2023-02-12T13:54:08.044Z,99315.28
2023-02-12T13:56:46.132Z,99342.22
2023-02-12T13:59:33.158Z,99338.78
2023-02-12T14:02:05.512Z,99322.97
2023-02-12T14:04:35.150Z,99316.31
2023-02-12T14:07:06.818Z,99332.66
2023-02-12T14:09:42.937Z,99332.63
2023-02-12T14:12:14.730Z,99306.34
2023-02-12T14:14:48.726Z,99312.09
2023-02-12T14:17:30.989Z,99319.34
2023-02-12T14:20:11.831Z,99307.81
2023-02-12T14:22:44.662Z,99321.72
2023-02-12T14:25:14.559Z,99337.53
2023-02-12T14:27:49.835Z,99345.81
2023-02-12T14:30:16.559Z,99332.00
2023-02-12T14:32:46.481Z,99331.72
2023-02-12T14:35:38.186Z,99325.63
2023-02-12T14:38:17.943Z,99325.31
2023-02-12T14:40:49.333Z,99301.94
2023-02-12T14:43:32.040Z,99292.72
2023-02-12T14:46:20.597Z,99295.09
2023-02-12T14:49:05.016Z,99287.44
2023-02-12T14:51:52.196Z,99283.13
2023-02-12T14:54:30.247Z,99282.13
2023-02-12T14:57:01.771Z,99272.84
2023-02-12T14:59:34.332Z,99287.31
2023-02-12T15:02:02.857Z,99288.25
2023-02-12T15:04:38.244Z,99276.66
2023-02-12T15:07:13.220Z,99284.59
2023-02-12T15:10:10.722Z,99273.75
2023-02-12T15:12:43.512Z,99269.94
2023-02-12T15:15:32.581Z,99252.78
2023-02-12T15:18:35.146Z,99244.28
2023-02-12T15:21:24.614Z,99253.69
2023-02-12T15:24:04.090Z,99245.06
2023-02-12T15:26:34.167Z,99234.50
2023-02-12T15:29:02.786Z,99234.03
2023-02-12T15:31:31.671Z,99236.34
2023-02-12T15:34:01.390Z,99233.16
2023-02-12T15:36:31.437Z,99223.38
2023-02-12T15:39:01.679Z,99215.81
2023-02-12T15:41:42.049Z,99200.25
2023-02-12T15:44:22.849Z,99197.09
2023-02-12T15:47:00.463Z,99202.50
2023-02-12T15:49:46.010Z,99198.66
2023-02-12T15:52:27.100Z,99192.94
2023-02-12T15:54:53.870Z,99171.06
2023-02-12T15:57:24.002Z,99161.50
2023-02-12T15:59:56.532Z,99151.03
2023-02-12T16:02:33.135Z,99141.69
2023-02-12T16:05:03.590Z,99141.88
2023-02-12T16:07:34.809Z,99137.72
2023-02-12T16:10:02.883Z,99141.84
2023-02-12T16:12:33.516Z,99126.00
2023-02-12T16:15:01.036Z,99125.22
2023-02-12T16:17:31.586Z,99124.66
2023-02-12T16:20:09.009Z,99120.22
2023-02-12T16:22:41.293Z,99124.34
2023-02-12T16:25:24.991Z,99125.38
2023-02-12T16:27:56.276Z,99128.75
2023-02-12T16:30:27.986Z,99125.94
2023-02-12T16:32:55.026Z,99124.59
2023-02-12T16:35:32.231Z,99134.13
2023-02-12T16:38:08.197Z,99130.22
2023-02-12T16:40:36.817Z,99130.22
2023-02-12T16:43:24.654Z,99128.84
2023-02-12T16:46:01.486Z,99131.75
2023-02-12T16:48:28.537Z,99136.38
2023-02-12T16:50:58.216Z,99127.28
2023-02-12T16:53:30.775Z,99124.41
2023-02-12T16:55:58.856Z,99125.25
2023-02-12T16:58:26.580Z,99116.88
2023-02-12T17:00:56.819Z,99113.19
2023-02-12T17:03:24.931Z,99108.31
2023-02-12T17:05:52.554Z,99107.53
2023-02-12T17:08:22.573Z,99106.22
2023-02-12T17:10:49.898Z,99107.28
2023-02-12T17:13:17.129Z,99098.22
2023-02-12T17:15:59.514Z,99102.84
2023-02-12T17:18:26.409Z,99101.28
2023-02-12T17:21:00.115Z,99099.47
2023-02-12T17:23:27.484Z,99089.06
2023-02-12T17:25:54.778Z,99094.72
2023-02-12T17:28:23.151Z,99085.13
2023-02-12T17:30:50.137Z,99085.91
2023-02-12T17:33:17.595Z,99079.66
2023-02-12T17:35:44.944Z,99077.63
2023-02-12T17:38:11.631Z,99084.59
2023-02-12T17:40:39.104Z,99085.84
2023-02-12T17:43:06.431Z,99077.81
2023-02-12T17:45:33.542Z,99075.75
2023-02-12T17:48:00.678Z,99071.84
2023-02-12T17:50:27.406Z,99069.75
2023-02-12T17:52:54.193Z,99060.09
2023-02-12T17:55:21.296Z,99059.09
2023-02-12T17:57:53.301Z,99064.50
2023-02-12T18:00:21.314Z,99059.81
2023-02-12T18:02:48.405Z,99052.31
2023-02-12T18:05:15.688Z,99057.50
2023-02-12T18:07:42.581Z,99054.91
2023-02-12T18:10:11.644Z,99056.22
2023-02-12T18:12:38.650Z,99064.00
2023-02-12T18:15:07.697Z,99063.69
2023-02-12T18:17:35.612Z,99058.75
2023-02-12T18:20:02.613Z,99054.56
2023-02-12T18:22:29.488Z,99051.97
2023-02-12T18:24:57.693Z,99053.00
2023-02-12T18:27:24.595Z,99048.31
2023-02-12T18:29:51.481Z,99046.47
2023-02-12T18:32:18.478Z,99048.06
2023-02-12T18:34:45.906Z,99041.06
2023-02-12T18:37:13.754Z,99033.78
2023-02-12T18:39:40.732Z,99024.91
2023-02-12T18:42:07.997Z,99033.47
2023-02-12T18:44:34.926Z,99028.03
2023-02-12T18:47:01.737Z,99029.81
2023-02-12T18:49:28.879Z,99027.47
2023-02-12T18:51:56.847Z,99022.28
2023-02-12T18:54:24.002Z,99011.94
2023-02-12T18:56:52.605Z,99011.63
2023-02-12T18:59:20.577Z,99018.84
2023-02-12T19:01:49.448Z,99014.75
2023-02-12T19:04:17.930Z,99002.06
2023-02-12T19:06:50.467Z,98997.59
2023-02-12T19:09:20.452Z,98992.94
2023-02-12T19:11:48.871Z,98989.25
2023-02-12T19:14:18.065Z,98970.81
2023-02-12T19:16:48.267Z,98961.25
2023-02-12T19:19:15.928Z,98968.47
2023-02-12T19:21:43.149Z,98957.84
2023-02-12T19:24:11.792Z,98950.31
2023-02-12T19:26:38.582Z,98950.09
2023-02-12T19:29:05.578Z,98941.78
2023-02-12T19:31:35.678Z,98937.59
2023-02-12T19:34:14.732Z,98933.94
2023-02-12T19:36:42.133Z,98925.41
2023-02-12T19:39:08.793Z,98934.97
2023-02-12T19:41:41.104Z,98927.44
2023-02-12T19:44:17.972Z,98932.91
2023-02-12T19:46:45.800Z,98920.44
2023-02-12T19:49:21.609Z,98923.81
2023-02-12T19:51:49.116Z,98921.22
2023-02-12T19:54:17.624Z,98912.91
2023-02-12T19:56:45.275Z,98924.03
2023-02-12T19:59:17.486Z,98925.06
2023-02-12T20:01:48.394Z,98919.88
2023-02-12T20:04:18.309Z,98917.31
2023-02-12T20:06:46.067Z,98911.84
2023-02-12T20:09:13.776Z,98914.94
2023-02-12T20:11:41.008Z,98922.41
2023-02-12T20:14:10.334Z,98916.72
2023-02-12T20:16:39.268Z,98911.22
2023-02-12T20:19:15.240Z,98921.94
2023-02-12T20:21:43.085Z,98925.28
2023-02-12T20:24:10.177Z,98922.41
2023-02-12T20:26:38.013Z,98920.84
2023-02-12T20:29:05.749Z,98921.88
2023-02-12T20:31:36.064Z,98934.81
2023-02-12T20:34:06.080Z,98938.97
2023-02-12T20:36:36.906Z,98937.66
2023-02-12T20:39:06.023Z,98934.03
2023-02-12T20:41:34.874Z,98935.31
2023-02-12T20:44:01.711Z,98930.94
2023-02-12T20:46:28.469Z,98937.09
2023-02-12T20:48:57.510Z,98932.19
2023-02-12T20:51:26.695Z,98928.78
2023-02-12T20:53:55.491Z,98933.75
2023-02-12T20:56:27.459Z,98932.88
2023-02-12T20:58:54.963Z,98934.22
2023-02-12T21:01:24.114Z,98935.78
2023-02-12T21:03:52.564Z,98937.34
2023-02-12T21:06:20.283Z,98935.25
2023-02-12T21:08:47.071Z,98930.59
2023-02-12T21:11:17.207Z,98929.28
2023-02-12T21:13:58.760Z,98930.06
2023-02-12T21:16:32.310Z,98935.47
2023-02-12T21:18:59.296Z,98932.09
2023-02-12T21:21:33.148Z,98932.88
2023-02-12T21:24:00.666Z,98934.69
2023-02-12T21:26:29.417Z,98932.34
2023-02-12T21:28:58.033Z,98929.25
2023-02-12T21:31:28.415Z,98933.13
2023-02-12T21:33:56.630Z,98936.72
2023-02-12T21:36:32.026Z,98928.97
2023-02-12T21:38:59.462Z,98936.72
2023-02-12T21:41:32.045Z,98935.94
2023-02-12T21:44:05.285Z,98930.25
2023-02-12T21:46:33.570Z,98931.56
2023-02-12T21:49:00.521Z,98928.44
2023-02-12T21:51:29.793Z,98926.66
2023-02-12T21:54:00.128Z,98931.28
2023-02-12T21:56:27.426Z,98928.69
2023-02-12T21:58:54.977Z,98932.53
2023-02-12T22:01:24.144Z,98922.44
2023-02-12T22:03:52.300Z,98924.00
2023-02-12T22:06:22.224Z,98912.56
2023-02-12T22:08:52.974Z,98911.56
2023-02-12T22:11:21.675Z,98916.94
2023-02-12T22:13:49.521Z,98908.72
2023-02-12T22:16:22.722Z,98912.31
2023-02-12T22:18:52.851Z,98911.25
2023-02-12T22:21:19.621Z,98908.91
2023-02-12T22:23:46.288Z,98900.38
2023-02-12T22:26:16.022Z,98909.69
2023-02-12T22:28:45.740Z,98899.59
2023-02-12T22:31:17.273Z,98905.56
2023-02-12T22:33:44.014Z,98899.59
2023-02-12T22:36:10.741Z,98897.25
2023-02-12T22:38:39.324Z,98899.06
2023-02-12T22:41:07.292Z,98900.38
2023-02-12T22:43:37.469Z,98897.50
2023-02-12T22:46:04.826Z,98894.09
2023-02-12T22:48:31.769Z,98891.78
2023-02-12T22:50:59.569Z,98894.09
2023-02-12T22:53:26.824Z,98901.56
2023-02-12T22:55:53.593Z,98907.50
2023-02-12T22:58:20.273Z,98904.91
2023-02-12T23:00:47.072Z,98896.63
2023-02-12T23:03:13.717Z,98902.81
2023-02-12T23:05:40.430Z,98907.75
2023-02-12T23:08:07.299Z,98905.94
2023-02-12T23:10:34.042Z,98915.50
2023-02-12T23:13:02.786Z,98916.03
2023-02-12T23:15:30.600Z,98918.59
2023-02-12T23:17:57.522Z,98916.03
2023-02-12T23:20:24.354Z,98919.59
2023-02-12T23:22:51.052Z,98922.19
2023-02-12T23:25:17.720Z,98916.50
2023-02-12T23:27:44.584Z,98919.84
2023-02-12T23:30:11.820Z,98909.72
2023-02-12T23:32:38.864Z,98910.28
2023-02-12T23:35:06.159Z,98917.28
2023-02-12T23:37:32.838Z,98912.09
2023-02-12T23:39:59.574Z,98911.31
2023-02-12T23:42:26.279Z,98914.13
2023-02-12T23:44:53.087Z,98899.41
2023-02-12T23:47:19.841Z,98901.22
2023-02-12T23:49:46.600Z,98896.03
2023-02-12T23:52:13.328Z,98889.53
2023-02-12T23:54:40.121Z,98884.13
2023-02-12T23:57:06.836Z,98887.75
2023-02-12T23:59:33.577Z,98880.22
